Wetterdaten: Woche 31.12.12 - 06.01.13 (KW1)
Datum Zeit Temp. Aussen +5cm Feuchte Auss Luftdruck Regen Sonnenschein Regendauer UV Solar Windben
31.12.2012 00:00 8,5 C 6,8 C 85 % 1016,5 hPa 0,0 l/m 0,00 h 0,00 h 0,0 UV-I 0 W/m 21,3 km/h (4 Bft)
31.12.2012 01:00 8,6 C 6,9 C 85 % 1016,6 hPa 0,0 l/m 0,00 h 0,00 h 0,0 UV-I 0 W/m 22,2 km/h (4 Bft)
31.12.2012 02:00 8,7 C 7,1 C 85 % 1016,5 hPa 0,0 l/m 0,00 h 0,00 h 0,0 UV-I 0 W/m 16,1 km/h (3 Bft)
31.12.2012 03:00 8,3 C 6,5 C 86 % 1016,2 hPa 0,0 l/m 0,00 h 0,00 h 0,0 UV-I 0 W/m 13,4 km/h (3 Bft)
31.12.2012 04:00 8,3 C 6,5 C 85 % 1015,6 hPa 0,0 l/m 0,00 h 0,00 h 0,0 UV-I 0 W/m 17,0 km/h (3 Bft)
31.12.2012 05:00 8,2 C 6,7 C 85 % 1015,0 hPa 0,0 l/m 0,00 h 0,00 h 0,0 UV-I 0 W/m 20,6 km/h (4 Bft)
31.12.2012 06:00 8,0 C 6,0 C 85 % 1014,7 hPa 0,0 l/m 0,00 h 0,00 h 0,0 UV-I 0 W/m 15,9 km/h (3 Bft)
31.12.2012 07:00 7,8 C 6,0 C 86 % 1014,4 hPa 0,0 l/m 0,00 h 0,00 h 0,0 UV-I 0 W/m 18,3 km/h (3 Bft)
31.12.2012 08:00 8,0 C 6,4 C 86 % 1014,1 hPa 0,0 l/m 0,00 h 0,00 h 0,0 UV-I 6 W/m 17,6 km/h (3 Bft)
31.12.2012 09:00 8,5 C 7,1 C 84 % 1013,7 hPa 0,0 l/m 0,00 h 0,00 h 0,0 UV-I 16 W/m 19,8 km/h (4 Bft)
31.12.2012 10:00 9,1 C 7,8 C 82 % 1013,7 hPa 0,0 l/m 0,00 h 0,00 h 0,0 UV-I 55 W/m 21,7 km/h (4 Bft)
31.12.2012 11:00 9,5 C 8,4 C 82 % 1013,3 hPa 0,0 l/m 0,00 h 0,00 h 0,0 UV-I 66 W/m 21,0 km/h (4 Bft)
31.12.2012 12:00 9,7 C 8,6 C 82 % 1012,5 hPa 0,0 l/m 0,00 h 0,00 h 0,0 UV-I 63 W/m 23,3 km/h (4 Bft)
31.12.2012 13:00 10,0 C 9,0 C 82 % 1011,5 hPa 0,0 l/m 0,00 h 0,00 h 0,0 UV-I 81 W/m 19,3 km/h (3 Bft)
31.12.2012 14:00 10,2 C 9,0 C 81 % 1010,7 hPa 0,0 l/m 0,00 h 0,00 h 0,0 UV-I 38 W/m 22,0 km/h (4 Bft)
31.12.2012 15:00 10,3 C 9,0 C 79 % 1009,9 hPa 0,0 l/m 0,00 h 0,00 h 0,0 UV-I 31 W/m 19,5 km/h (3 Bft)
31.12.2012 16:00 10,3 C 8,6 C 79 % 1009,0 hPa 0,0 l/m 0,00 h 0,00 h 0,0 UV-I 7 W/m 19,4 km/h (3 Bft)
31.12.2012 17:00 9,9 C 8,3 C 81 % 1008,0 hPa 0,0 l/m 0,00 h 0,00 h 0,0 UV-I 0 W/m 17,6 km/h (3 Bft)
31.12.2012 18:00 9,7 C 8,1 C 83 % 1007,2 hPa 0,0 l/m 0,00 h 0,00 h 0,0 UV-I 0 W/m 14,2 km/h (3 Bft)
31.12.2012 19:00 9,8 C 8,4 C 83 % 1006,6 hPa 0,0 l/m 0,00 h 0,00 h 0,0 UV-I 0 W/m 16,5 km/h (3 Bft)
31.12.2012 20:00 9,9 C 8,4 C 82 % 1005,4 hPa 0,0 l/m 0,00 h 0,00 h 0,0 UV-I 0 W/m 21,2 km/h (4 Bft)
31.12.2012 21:00 10,1 C 8,5 C 80 % 1004,8 hPa 0,0 l/m 0,00 h 0,00 h 0,0 UV-I 0 W/m 20,2 km/h (4 Bft)
31.12.2012 22:00 10,4 C 9,0 C 79 % 1004,3 hPa 0,0 l/m 0,00 h 0,00 h 0,0 UV-I 0 W/m 23,7 km/h (4 Bft)
31.12.2012 23:00 10,3 C 8,7 C 79 % 1004,0 hPa 0,0 l/m 0,00 h 0,00 h 0,0 UV-I 0 W/m 25,1 km/h (4 Bft)
01.01.2013 00:00 9,8 C 8,2 C 82 % 1003,6 hPa 0,0 l/m 0,00 h 0,00 h 0,0 UV-I 0 W/m 26,7 km/h (4 Bft)
01.01.2013 01:00 9,3 C 7,9 C 85 % 1002,9 hPa 0,0 l/m 0,00 h 0,00 h 0,0 UV-I 0 W/m 22,9 km/h (4 Bft)
01.01.2013 02:00 9,1 C 7,3 C 86 % 1002,4 hPa 0,0 l/m 0,00 h 0,00 h 0,0 UV-I 0 W/m 21,4 km/h (4 Bft)
01.01.2013 03:00 8,7 C 6,2 C 89 % 1002,1 hPa 0,8 l/m 0,00 h 0,00 h 0,0 UV-I 0 W/m 18,6 km/h (3 Bft)
01.01.2013 04:00 8,1 C 6,2 C 93 % 1001,4 hPa 0,6 l/m 0,00 h 0,00 h 0,0 UV-I 0 W/m 16,7 km/h (3 Bft)
01.01.2013 05:00 7,8 C 6,2 C 95 % 1001,1 hPa 0,8 l/m 0,00 h 0,00 h 0,0 UV-I 0 W/m 15,3 km/h (3 Bft)
01.01.2013 06:00 7,5 C 5,7 C 96 % 1001,0 hPa 0,6 l/m 0,00 h 0,00 h 0,0 UV-I 0 W/m 13,8 km/h (3 Bft)
01.01.2013 07:00 7,3 C 5,7 C 96 % 1001,1 hPa 0,4 l/m 0,00 h 0,00 h 0,0 UV-I 0 W/m 13,5 km/h (3 Bft)
01.01.2013 08:00 7,1 C 5,7 C 97 % 1001,4 hPa 0,4 l/m 0,00 h 0,00 h 0,0 UV-I 0 W/m 10,8 km/h (2 Bft)
01.01.2013 09:00 7,1 C 5,7 C 97 % 1001,7 hPa 0,2 l/m 0,00 h 0,00 h 0,0 UV-I 9 W/m 10,5 km/h (2 Bft)
01.01.2013 10:00 7,2 C 5,7 C 97 % 1002,1 hPa 0,6 l/m 0,00 h 0,00 h 0,0 UV-I 18 W/m 12,3 km/h (3 Bft)
01.01.2013 11:00 7,3 C 6,1 C 98 % 1002,4 hPa 0,6 l/m 0,00 h 0,00 h 0,0 UV-I 29 W/m 10,2 km/h (2 Bft)
01.01.2013 12:00 7,7 C 6,3 C 98 % 1002,8 hPa 0,4 l/m 0,00 h 0,00 h 0,0 UV-I 34 W/m 12,6 km/h (3 Bft)
01.01.2013 13:00 7,5 C 6,0 C 98 % 1004,0 hPa 0,8 l/m 0,00 h 0,00 h 0,0 UV-I 24 W/m 13,6 km/h (3 Bft)
01.01.2013 14:00 6,4 C 5,2 C 96 % 1005,4 hPa 0,0 l/m 0,03 h 0,00 h 0,0 UV-I 51 W/m 7,2 km/h (2 Bft)
01.01.2013 15:00 6,6 C 5,1 C 96 % 1006,5 hPa 0,0 l/m 0,00 h 0,00 h 0,0 UV-I 26 W/m 6,0 km/h (2 Bft)
01.01.2013 16:00 6,2 C 4,3 C 95 % 1007,3 hPa 0,0 l/m 0,00 h 0,00 h 0,0 UV-I 12 W/m 4,1 km/h (1 Bft)
01.01.2013 17:00 5,2 C 3,1 C 94 % 1008,3 hPa 0,0 l/m 0,00 h 0,00 h 0,0 UV-I 0 W/m 2,6 km/h (1 Bft)
01.01.2013 18:00 4,5 C 2,3 C 93 % 1009,3 hPa 0,0 l/m 0,00 h 0,00 h 0,0 UV-I 0 W/m 2,9 km/h (1 Bft)
01.01.2013 19:00 3,9 C 1,9 C 94 % 1010,3 hPa 0,0 l/m 0,00 h 0,00 h 0,0 UV-I 0 W/m 1,8 km/h (1 Bft)
01.01.2013 20:00 3,6 C 1,8 C 95 % 1011,0 hPa 0,0 l/m 0,00 h 0,00 h 0,0 UV-I 0 W/m 3,7 km/h (1 Bft)
01.01.2013 21:00 3,5 C 2,1 C 95 % 1011,5 hPa 0,0 l/m 0,00 h 0,00 h 0,0 UV-I 0 W/m 6,0 km/h (2 Bft)
01.01.2013 22:00 4,1 C 2,9 C 94 % 1012,3 hPa 0,0 l/m 0,00 h 0,00 h 0,0 UV-I 0 W/m 9,4 km/h (2 Bft)
01.01.2013 23:00 4,4 C 3,4 C 93 % 1013,1 hPa 0,0 l/m 0,00 h 0,00 h 0,0 UV-I 0 W/m 6,5 km/h (2 Bft)
02.01.2013 00:00 4,4 C 3,4 C 92 % 1013,5 hPa 0,0 l/m 0,00 h 0,00 h 0,0 UV-I 0 W/m 9,8 km/h (2 Bft)
02.01.2013 01:00 4,2 C 2,9 C 92 % 1013,9 hPa 0,0 l/m 0,00 h 0,00 h 0,0 UV-I 0 W/m 8,8 km/h (2 Bft)
02.01.2013 02:00 4,3 C 3,2 C 92 % 1014,7 hPa 0,0 l/m 0,00 h 0,00 h 0,0 UV-I 0 W/m 11,7 km/h (2 Bft)
02.01.2013 03:00 4,4 C 2,9 C 93 % 1015,6 hPa 0,4 l/m 0,00 h 0,00 h 0,0 UV-I 0 W/m 10,3 km/h (2 Bft)
02.01.2013 04:00 4,0 C 2,4 C 95 % 1016,3 hPa 0,0 l/m 0,00 h 0,00 h 0,0 UV-I 0 W/m 5,5 km/h (1 Bft)
02.01.2013 05:00 3,9 C 2,3 C 96 % 1017,0 hPa 0,0 l/m 0,00 h 0,00 h 0,0 UV-I 0 W/m 8,8 km/h (2 Bft)
02.01.2013 06:00 4,1 C 2,7 C 96 % 1017,9 hPa 0,0 l/m 0,00 h 0,00 h 0,0 UV-I 0 W/m 8,9 km/h (2 Bft)
02.01.2013 07:00 4,2 C 2,8 C 96 % 1019,0 hPa 0,0 l/m 0,00 h 0,00 h 0,0 UV-I 0 W/m 5,9 km/h (2 Bft)
02.01.2013 08:00 4,0 C 2,7 C 96 % 1020,3 hPa 0,0 l/m 0,00 h 0,00 h 0,0 UV-I 5 W/m 2,4 km/h (1 Bft)
02.01.2013 09:00 4,6 C 3,6 C 97 % 1021,5 hPa 0,0 l/m 0,00 h 0,00 h 0,0 UV-I 20 W/m 5,1 km/h (1 Bft)
02.01.2013 10:00 5,0 C 4,2 C 97 % 1022,4 hPa 0,0 l/m 0,20 h 0,00 h 0,0 UV-I 69 W/m 7,8 km/h (2 Bft)
02.01.2013 11:00 5,8 C 4,8 C 96 % 1023,0 hPa 0,0 l/m 0,03 h 0,00 h 0,0 UV-I 78 W/m 9,2 km/h (2 Bft)
02.01.2013 12:00 6,4 C 5,6 C 94 % 1023,3 hPa 0,0 l/m 0,00 h 0,00 h 0,0 UV-I 80 W/m 6,8 km/h (2 Bft)
02.01.2013 13:00 7,1 C 6,3 C 92 % 1023,6 hPa 0,0 l/m 0,17 h 0,00 h 0,0 UV-I 122 W/m 8,4 km/h (2 Bft)
02.01.2013 14:00 7,3 C 6,2 C 90 % 1024,0 hPa 0,0 l/m 0,10 h 0,00 h 0,0 UV-I 77 W/m 8,5 km/h (2 Bft)
02.01.2013 15:00 7,1 C 5,7 C 90 % 1024,7 hPa 0,0 l/m 0,00 h 0,00 h 0,0 UV-I 26 W/m 5,1 km/h (1 Bft)
02.01.2013 16:00 6,8 C 5,7 C 91 % 1025,1 hPa 0,0 l/m 0,00 h 0,00 h 0,0 UV-I 7 W/m 3,6 km/h (1 Bft)
02.01.2013 17:00 6,7 C 5,3 C 91 % 1025,7 hPa 0,0 l/m 0,00 h 0,00 h 0,0 UV-I 0 W/m 5,9 km/h (2 Bft)
02.01.2013 18:00 6,4 C 5,1 C 91 % 1026,0 hPa 0,0 l/m 0,00 h 0,00 h 0,0 UV-I 0 W/m 9,3 km/h (2 Bft)
02.01.2013 19:00 6,5 C 5,1 C 91 % 1026,2 hPa 0,0 l/m 0,00 h 0,00 h 0,0 UV-I 0 W/m 9,2 km/h (2 Bft)
02.01.2013 20:00 6,4 C 5,1 C 91 % 1026,3 hPa 0,0 l/m 0,00 h 0,00 h 0,0 UV-I 0 W/m 8,9 km/h (2 Bft)
02.01.2013 21:00 6,4 C 5,1 C 91 % 1026,4 hPa 0,0 l/m 0,00 h 0,00 h 0,0 UV-I 0 W/m 8,3 km/h (2 Bft)
02.01.2013 22:00 6,5 C 5,1 C 91 % 1026,5 hPa 0,0 l/m 0,00 h 0,00 h 0,0 UV-I 0 W/m 12,0 km/h (2 Bft)
02.01.2013 23:00 6,6 C 5,3 C 91 % 1026,3 hPa 0,0 l/m 0,00 h 0,00 h 0,0 UV-I 0 W/m 12,4 km/h (3 Bft)
03.01.2013 00:00 6,8 C 5,7 C 91 % 1026,5 hPa 0,0 l/m 0,00 h 0,00 h 0,0 UV-I 0 W/m 13,3 km/h (3 Bft)
03.01.2013 01:00 7,1 C 5,7 C 91 % 1026,3 hPa 0,0 l/m 0,00 h 0,00 h 0,0 UV-I 0 W/m 16,3 km/h (3 Bft)
03.01.2013 02:00 7,1 C 5,7 C 94 % 1026,4 hPa 0,0 l/m 0,00 h 0,00 h 0,0 UV-I 0 W/m 13,7 km/h (3 Bft)
03.01.2013 03:00 7,1 C 5,8 C 96 % 1026,3 hPa 0,0 l/m 0,00 h 0,00 h 0,0 UV-I 0 W/m 15,5 km/h (3 Bft)
03.01.2013 04:00 7,4 C 6,2 C 96 % 1026,3 hPa 0,0 l/m 0,00 h 0,00 h 0,0 UV-I 0 W/m 15,4 km/h (3 Bft)
03.01.2013 05:00 7,5 C 6,2 C 97 % 1027,0 hPa 0,0 l/m 0,00 h 0,00 h 0,0 UV-I 0 W/m 15,4 km/h (3 Bft)
03.01.2013 06:00 7,4 C 6,2 C 99 % 1027,2 hPa 0,2 l/m 0,00 h 0,00 h 0,0 UV-I 0 W/m 13,3 km/h (3 Bft)
03.01.2013 07:00 7,6 C 6,2 C 99 % 1027,8 hPa 0,0 l/m 0,00 h 0,00 h 0,0 UV-I 0 W/m 12,5 km/h (3 Bft)
03.01.2013 08:00 7,8 C 6,7 C 100 % 1028,3 hPa 0,0 l/m 0,00 h 0,00 h 0,0 UV-I 5 W/m 12,6 km/h (3 Bft)
03.01.2013 09:00 8,2 C 6,9 C 100 % 1028,6 hPa 0,0 l/m 0,00 h 0,00 h 0,0 UV-I 10 W/m 15,0 km/h (3 Bft)
03.01.2013 10:00 8,5 C 7,3 C 100 % 1029,3 hPa 0,0 l/m 0,00 h 0,00 h 0,0 UV-I 14 W/m 13,6 km/h (3 Bft)
03.01.2013 11:00 8,8 C 7,5 C 100 % 1030,1 hPa 0,2 l/m 0,00 h 0,00 h 0,0 UV-I 20 W/m 13,8 km/h (3 Bft)
03.01.2013 12:00 9,3 C 8,2 C 100 % 1030,1 hPa 0,0 l/m 0,00 h 0,00 h 0,0 UV-I 35 W/m 14,0 km/h (3 Bft)
03.01.2013 13:00 9,6 C 8,4 C 100 % 1030,4 hPa 0,0 l/m 0,00 h 0,00 h 0,0 UV-I 17 W/m 13,5 km/h (3 Bft)
03.01.2013 14:00 9,6 C 8,4 C 100 % 1030,5 hPa 0,0 l/m 0,00 h 0,00 h 0,0 UV-I 14 W/m 11,8 km/h (2 Bft)
03.01.2013 15:00 9,8 C 8,4 C 100 % 1030,8 hPa 0,0 l/m 0,00 h 0,00 h 0,0 UV-I 7 W/m 9,7 km/h (2 Bft)
03.01.2013 16:00 9,9 C 8,5 C 100 % 1031,4 hPa 0,2 l/m 0,00 h 0,00 h 0,0 UV-I 5 W/m 10,4 km/h (2 Bft)
03.01.2013 17:00 10,1 C 9,0 C 100 % 1032,0 hPa 0,0 l/m 0,00 h 0,00 h 0,0 UV-I 0 W/m 12,3 km/h (3 Bft)
03.01.2013 18:00 10,1 C 8,7 C 100 % 1032,5 hPa 0,0 l/m 0,00 h 0,00 h 0,0 UV-I 0 W/m 12,5 km/h (3 Bft)
03.01.2013 19:00 9,9 C 8,4 C 100 % 1032,9 hPa 0,0 l/m 0,00 h 0,00 h 0,0 UV-I 0 W/m 9,3 km/h (2 Bft)
03.01.2013 20:00 9,9 C 8,4 C 100 % 1033,3 hPa 0,0 l/m 0,00 h 0,00 h 0,0 UV-I 0 W/m 9,6 km/h (2 Bft)
03.01.2013 21:00 10,0 C 8,4 C 99 % 1034,0 hPa 0,0 l/m 0,00 h 0,00 h 0,0 UV-I 0 W/m 11,1 km/h (2 Bft)
03.01.2013 22:00 10,1 C 8,5 C 99 % 1034,4 hPa 0,0 l/m 0,00 h 0,00 h 0,0 UV-I 0 W/m 8,4 km/h (2 Bft)
03.01.2013 23:00 10,1 C 9,0 C 99 % 1034,9 hPa 0,0 l/m 0,00 h 0,00 h 0,0 UV-I 0 W/m 7,1 km/h (2 Bft)
04.01.2013 00:00 10,2 C 9,0 C 99 % 1034,8 hPa 0,0 l/m 0,00 h 0,00 h 0,0 UV-I 0 W/m 9,9 km/h (2 Bft)
04.01.2013 01:00 10,2 C 9,0 C 99 % 1034,7 hPa 0,0 l/m 0,00 h 0,00 h 0,0 UV-I 0 W/m 11,2 km/h (2 Bft)
04.01.2013 02:00 10,2 C 9,0 C 99 % 1034,5 hPa 0,0 l/m 0,00 h 0,00 h 0,0 UV-I 0 W/m 8,3 km/h (2 Bft)
04.01.2013 03:00 10,1 C 9,0 C 99 % 1034,5 hPa 0,0 l/m 0,00 h 0,00 h 0,0 UV-I 0 W/m 9,2 km/h (2 Bft)
04.01.2013 04:00 9,9 C 8,7 C 99 % 1034,2 hPa 0,0 l/m 0,00 h 0,00 h 0,0 UV-I 0 W/m 9,3 km/h (2 Bft)
04.01.2013 05:00 9,8 C 8,4 C 99 % 1034,1 hPa 0,0 l/m 0,00 h 0,00 h 0,0 UV-I 0 W/m 11,9 km/h (2 Bft)
04.01.2013 06:00 9,6 C 8,4 C 100 % 1034,0 hPa 0,0 l/m 0,00 h 0,00 h 0,0 UV-I 0 W/m 11,5 km/h (2 Bft)
04.01.2013 07:00 9,6 C 8,4 C 100 % 1034,4 hPa 0,0 l/m 0,00 h 0,00 h 0,0 UV-I 0 W/m 12,2 km/h (2 Bft)
04.01.2013 08:00 9,5 C 8,4 C 100 % 1034,7 hPa 0,0 l/m 0,00 h 0,00 h 0,0 UV-I 0 W/m 13,2 km/h (3 Bft)
04.01.2013 09:00 9,5 C 8,4 C 100 % 1034,7 hPa 0,0 l/m 0,00 h 0,00 h 0,0 UV-I 11 W/m 14,7 km/h (3 Bft)
04.01.2013 10:00 9,5 C 8,4 C 100 % 1034,8 hPa 0,0 l/m 0,00 h 0,00 h 0,0 UV-I 16 W/m 15,9 km/h (3 Bft)
04.01.2013 11:00 9,6 C 8,4 C 100 % 1035,0 hPa 0,0 l/m 0,00 h 0,00 h 0,0 UV-I 21 W/m 13,0 km/h (3 Bft)
04.01.2013 12:00 9,6 C 8,4 C 100 % 1035,0 hPa 0,0 l/m 0,00 h 0,00 h 0,0 UV-I 23 W/m 11,9 km/h (2 Bft)
04.01.2013 13:00 9,7 C 8,7 C 100 % 1034,7 hPa 0,0 l/m 0,00 h 0,00 h 0,0 UV-I 33 W/m 12,9 km/h (3 Bft)
04.01.2013 14:00 9,6 C 8,4 C 100 % 1034,4 hPa 0,0 l/m 0,00 h 0,00 h 0,0 UV-I 21 W/m 11,8 km/h (2 Bft)
04.01.2013 15:00 9,4 C 8,3 C 100 % 1034,6 hPa 0,0 l/m 0,00 h 0,00 h 0,0 UV-I 12 W/m 9,1 km/h (2 Bft)
04.01.2013 16:00 9,2 C 7,9 C 100 % 1034,5 hPa 0,0 l/m 0,00 h 0,00 h 0,0 UV-I 7 W/m 10,5 km/h (2 Bft)
04.01.2013 17:00 9,0 C 7,6 C 99 % 1034,4 hPa 0,0 l/m 0,00 h 0,00 h 0,0 UV-I 0 W/m 10,5 km/h (2 Bft)
04.01.2013 18:00 8,7 C 7,3 C 98 % 1034,2 hPa 0,0 l/m 0,00 h 0,00 h 0,0 UV-I 0 W/m 14,1 km/h (3 Bft)
04.01.2013 19:00 8,6 C 7,3 C 97 % 1034,3 hPa 0,0 l/m 0,00 h 0,00 h 0,0 UV-I 0 W/m 9,2 km/h (2 Bft)
04.01.2013 20:00 8,5 C 7,1 C 98 % 1034,3 hPa 0,0 l/m 0,00 h 0,00 h 0,0 UV-I 0 W/m 10,0 km/h (2 Bft)
04.01.2013 21:00 8,2 C 6,8 C 99 % 1034,3 hPa 0,0 l/m 0,00 h 0,00 h 0,0 UV-I 0 W/m 8,5 km/h (2 Bft)
04.01.2013 22:00 8,2 C 6,8 C 99 % 1034,0 hPa 0,2 l/m 0,00 h 0,00 h 0,0 UV-I 0 W/m 4,7 km/h (1 Bft)
04.01.2013 23:00 8,1 C 6,8 C 99 % 1034,0 hPa 0,0 l/m 0,00 h 0,00 h 0,0 UV-I 0 W/m 3,6 km/h (1 Bft)
05.01.2013 00:00 8,0 C 6,8 C 100 % 1033,7 hPa 0,2 l/m 0,00 h 0,00 h 0,0 UV-I 0 W/m 4,9 km/h (1 Bft)
05.01.2013 01:00 7,9 C 6,8 C 100 % 1033,5 hPa 0,0 l/m 0,00 h 0,00 h 0,0 UV-I 0 W/m 5,7 km/h (1 Bft)
05.01.2013 02:00 7,8 C 6,7 C 100 % 1033,5 hPa 0,2 l/m 0,00 h 0,00 h 0,0 UV-I 0 W/m 9,5 km/h (2 Bft)
05.01.2013 03:00 7,6 C 6,2 C 100 % 1033,6 hPa 0,0 l/m 0,00 h 0,00 h 0,0 UV-I 0 W/m 8,7 km/h (2 Bft)
05.01.2013 04:00 7,4 C 6,2 C 100 % 1033,5 hPa 0,2 l/m 0,00 h 0,00 h 0,0 UV-I 0 W/m 2,2 km/h (1 Bft)
05.01.2013 05:00 7,3 C 6,2 C 100 % 1033,4 hPa 0,0 l/m 0,00 h 0,00 h 0,0 UV-I 0 W/m 3,0 km/h (1 Bft)
05.01.2013 06:00 7,2 C 6,2 C 100 % 1033,4 hPa 0,0 l/m 0,00 h 0,00 h 0,0 UV-I 0 W/m 2,9 km/h (1 Bft)
05.01.2013 07:00 7,3 C 6,2 C 100 % 1033,5 hPa 0,0 l/m 0,00 h 0,00 h 0,0 UV-I 0 W/m 2,6 km/h (1 Bft)
05.01.2013 08:00 7,4 C 6,2 C 100 % 1033,8 hPa 0,0 l/m 0,00 h 0,00 h 0,0 UV-I 0 W/m 2,5 km/h (1 Bft)
05.01.2013 09:00 7,4 C 6,2 C 100 % 1033,9 hPa 0,0 l/m 0,00 h 0,00 h 0,0 UV-I 10 W/m 1,9 km/h (1 Bft)
05.01.2013 10:00 7,5 C 6,4 C 100 % 1034,0 hPa 0,0 l/m 0,00 h 0,00 h 0,0 UV-I 24 W/m 3,5 km/h (1 Bft)
05.01.2013 11:00 7,8 C 6,8 C 100 % 1034,3 hPa 0,0 l/m 0,00 h 0,00 h 0,0 UV-I 33 W/m 5,3 km/h (1 Bft)
05.01.2013 12:00 8,1 C 6,9 C 99 % 1034,0 hPa 0,0 l/m 0,00 h 0,00 h 0,0 UV-I 30 W/m 1,9 km/h (1 Bft)
05.01.2013 13:00 8,1 C 6,9 C 98 % 1033,6 hPa 0,0 l/m 0,00 h 0,00 h 0,0 UV-I 22 W/m 4,5 km/h (1 Bft)
05.01.2013 14:00 8,2 C 7,3 C 97 % 1033,4 hPa 0,0 l/m 0,00 h 0,00 h 0,0 UV-I 13 W/m 4,4 km/h (1 Bft)
05.01.2013 15:00 8,2 C 7,1 C 97 % 1033,5 hPa 0,0 l/m 0,00 h 0,00 h 0,0 UV-I 8 W/m 2,2 km/h (1 Bft)
05.01.2013 16:00 8,2 C 6,8 C 97 % 1033,6 hPa 0,0 l/m 0,00 h 0,00 h 0,0 UV-I 5 W/m 3,0 km/h (1 Bft)
05.01.2013 17:00 7,8 C 6,3 C 98 % 1033,4 hPa 0,0 l/m 0,00 h 0,00 h 0,0 UV-I 0 W/m 3,1 km/h (1 Bft)
05.01.2013 18:00 7,6 C 6,2 C 98 % 1033,2 hPa 0,0 l/m 0,00 h 0,00 h 0,0 UV-I 0 W/m 0,9 km/h (0 Bft)
05.01.2013 19:00 7,5 C 6,2 C 99 % 1033,0 hPa 0,0 l/m 0,00 h 0,00 h 0,0 UV-I 0 W/m 3,4 km/h (1 Bft)
05.01.2013 20:00 7,2 C 6,2 C 99 % 1032,8 hPa 0,0 l/m 0,00 h 0,00 h 0,0 UV-I 0 W/m 2,9 km/h (1 Bft)
05.01.2013 21:00 7,3 C 6,2 C 99 % 1032,6 hPa 0,0 l/m 0,00 h 0,00 h 0,0 UV-I 0 W/m 2,5 km/h (1 Bft)
05.01.2013 22:00 7,2 C 6,2 C 99 % 1032,8 hPa 0,0 l/m 0,00 h 0,00 h 0,0 UV-I 0 W/m 5,5 km/h (1 Bft)
05.01.2013 23:00 7,2 C 5,7 C 99 % 1032,9 hPa 0,2 l/m 0,00 h 0,00 h 0,0 UV-I 0 W/m 4,1 km/h (1 Bft)
06.01.2013 00:00 6,9 C 5,7 C 99 % 1032,6 hPa 0,0 l/m 0,00 h 0,00 h 0,0 UV-I 0 W/m 4,3 km/h (1 Bft)
06.01.2013 01:00 6,8 C 5,7 C 99 % 1032,1 hPa 0,0 l/m 0,00 h 0,00 h 0,0 UV-I 0 W/m 1,3 km/h (1 Bft)
06.01.2013 02:00 6,9 C 5,7 C 99 % 1031,8 hPa 0,0 l/m 0,00 h 0,00 h 0,0 UV-I 0 W/m 2,1 km/h (1 Bft)
06.01.2013 03:00 7,1 C 5,9 C 100 % 1031,3 hPa 0,0 l/m 0,00 h 0,00 h 0,0 UV-I 0 W/m 3,5 km/h (1 Bft)
06.01.2013 04:00 7,2 C 6,2 C 100 % 1030,7 hPa 0,0 l/m 0,00 h 0,00 h 0,0 UV-I 0 W/m 3,1 km/h (1 Bft)
06.01.2013 05:00 7,3 C 6,2 C 100 % 1030,4 hPa 0,0 l/m 0,00 h 0,00 h 0,0 UV-I 0 W/m 4,6 km/h (1 Bft)
06.01.2013 06:00 7,4 C 6,2 C 100 % 1030,0 hPa 0,0 l/m 0,00 h 0,00 h 0,0 UV-I 0 W/m 3,9 km/h (1 Bft)
06.01.2013 07:00 7,5 C 6,3 C 100 % 1030,2 hPa 0,0 l/m 0,00 h 0,00 h 0,0 UV-I 0 W/m 4,0 km/h (1 Bft)
06.01.2013 08:00 7,7 C 6,8 C 100 % 1030,3 hPa 0,0 l/m 0,00 h 0,00 h 0,0 UV-I 5 W/m 7,9 km/h (2 Bft)
06.01.2013 09:00 7,8 C 6,8 C 99 % 1030,2 hPa 0,0 l/m 0,00 h 0,00 h 0,0 UV-I 14 W/m 6,3 km/h (2 Bft)
06.01.2013 10:00 8,0 C 7,2 C 99 % 1030,4 hPa 0,0 l/m 0,00 h 0,00 h 0,0 UV-I 17 W/m 8,4 km/h (2 Bft)
06.01.2013 11:00 8,3 C 7,3 C 98 % 1030,3 hPa 0,0 l/m 0,00 h 0,00 h 0,0 UV-I 25 W/m 6,2 km/h (2 Bft)
06.01.2013 12:00 8,7 C 7,9 C 98 % 1029,7 hPa 0,0 l/m 0,00 h 0,00 h 0,0 UV-I 48 W/m 9,2 km/h (2 Bft)
06.01.2013 13:00 9,0 C 8,4 C 98 % 1029,4 hPa 0,0 l/m 0,00 h 0,00 h 0,0 UV-I 50 W/m 10,9 km/h (2 Bft)
06.01.2013 14:00 9,2 C 8,4 C 97 % 1029,5 hPa 0,0 l/m 0,00 h 0,00 h 0,0 UV-I 20 W/m 6,1 km/h (2 Bft)
06.01.2013 15:00 9,2 C 8,3 C 97 % 1029,4 hPa 0,0 l/m 0,00 h 0,00 h 0,0 UV-I 17 W/m 5,0 km/h (1 Bft)
06.01.2013 16:00 8,9 C 7,5 C 96 % 1029,4 hPa 0,0 l/m 0,00 h 0,00 h 0,0 UV-I 9 W/m 0,9 km/h (0 Bft)
06.01.2013 17:00 8,6 C 7,3 C 96 % 1029,7 hPa 0,0 l/m 0,00 h 0,00 h 0,0 UV-I 0 W/m 0,4 km/h (0 Bft)
06.01.2013 18:00 8,4 C 7,0 C 97 % 1029,4 hPa 0,0 l/m 0,00 h 0,00 h 0,0 UV-I 0 W/m 0,4 km/h (0 Bft)
06.01.2013 19:00 8,2 C 6,7 C 97 % 1029,4 hPa 0,0 l/m 0,00 h 0,00 h 0,0 UV-I 0 W/m 1,4 km/h (1 Bft)
06.01.2013 20:00 7,9 C 6,3 C 97 % 1029,5 hPa 0,0 l/m 0,00 h 0,00 h 0,0 UV-I 0 W/m 1,1 km/h (1 Bft)
06.01.2013 21:00 7,6 C 6,5 C 98 % 1029,8 hPa 0,0 l/m 0,00 h 0,00 h 0,0 UV-I 0 W/m 0,3 km/h (0 Bft)
06.01.2013 22:00 8,0 C 6,8 C 98 % 1029,9 hPa 0,0 l/m 0,00 h 0,00 h 0,0 UV-I 0 W/m 2,1 km/h (1 Bft)
06.01.2013 23:00 8,1 C 6,8 C 98 % 1029,9 hPa 0,0 l/m 0,00 h 0,00 h 0,0 UV-I 0 W/m 2,1 km/h (1 Bft)
Min-Datum _ 01.01.13 01.01.13 31.12.12 01.01.13 - - - - - 01.01.13
_ Min-Zeit 20:46 19:00 16:06 05:44 - - - - - 08:58
Minimum _ 3,4 C 1,8 C 78 % 1000,9 hPa - - - - - 0,0 km/h (0 Bft)
Max-Datum _ 31.12.12 31.12.12 02.01.13 04.01.13 01.01.13 01.01.13 31.12.12 31.12.12 02.01.13 01.01.13
_ Max-Zeit 22:08 12:34 10:26 11:02 03:08 14:40 00:00 00:00 13:46 02:08
Maximum _ 10,4 C 9,0 C 100 % 1035,2 hPa 0,8 l/m 0,03 h 0,00 h 0,0 UV-I 214 W/m 48,9 km/h
S (6 Bft)
Durchschnitt _ 7,9 C 6,6 C 95 % 1023,8 hPa #8,2 l/m #32 min. #0 min. 0,0 UV-I 28 W/m 10,0 km/h (2 Bft)
© 2013 W. Hausmann